createdAt,value
2018-08-23T00:01:18.763Z,15.30
2018-08-23T00:03:46.971Z,15.30
2018-08-23T00:06:15.040Z,15.30
2018-08-23T00:08:47.291Z,15.20
2018-08-23T00:11:15.545Z,15.20
2018-08-23T00:13:44.560Z,15.10
2018-08-23T00:16:12.969Z,15.10
2018-08-23T00:18:41.239Z,15.00
2018-08-23T00:21:14.627Z,15.00
2018-08-23T00:23:45.020Z,15.00
2018-08-23T00:26:16.064Z,15.00
2018-08-23T00:28:44.377Z,15.00
2018-08-23T00:31:12.712Z,15.00
2018-08-23T00:33:40.809Z,15.00
2018-08-23T00:36:08.738Z,15.00
2018-08-23T00:38:38.043Z,14.90
2018-08-23T00:41:06.118Z,14.90
2018-08-23T00:43:34.343Z,14.90
2018-08-23T00:46:06.953Z,14.90
2018-08-23T00:48:35.496Z,14.90
2018-08-23T00:51:05.498Z,14.80
2018-08-23T00:53:37.029Z,14.80
2018-08-23T00:56:25.215Z,14.80
2018-08-23T00:58:58.881Z,14.80
2018-08-23T01:01:26.946Z,14.80
2018-08-23T01:03:54.860Z,14.80
2018-08-23T01:06:23.971Z,14.80
2018-08-23T01:08:52.132Z,14.80
2018-08-23T01:11:20.216Z,14.80
2018-08-23T01:13:48.978Z,14.80
2018-08-23T01:16:17.151Z,14.80
2018-08-23T01:18:45.913Z,14.80
2018-08-23T01:21:14.304Z,14.70
2018-08-23T01:23:42.549Z,14.70
2018-08-23T01:26:10.469Z,14.70
2018-08-23T01:28:38.704Z,14.70
2018-08-23T01:31:16.875Z,14.70
2018-08-23T01:33:45.199Z,14.70
2018-08-23T01:36:16.012Z,14.70
2018-08-23T01:38:44.148Z,14.70
2018-08-23T01:41:12.196Z,14.70
2018-08-23T01:43:40.547Z,14.70
2018-08-23T01:46:08.778Z,14.70
2018-08-23T01:48:36.897Z,14.70
2018-08-23T01:51:05.279Z,14.60
2018-08-23T01:53:39.713Z,14.60
2018-08-23T01:56:08.427Z,14.50
2018-08-23T01:58:36.497Z,14.50
2018-08-23T02:01:13.743Z,14.50
2018-08-23T02:03:42.230Z,14.40
2018-08-23T02:06:10.620Z,14.40
2018-08-23T02:08:38.731Z,14.40
2018-08-23T02:11:07.159Z,14.40
2018-08-23T02:13:35.150Z,14.40
2018-08-23T02:16:04.131Z,14.40
2018-08-23T02:18:33.035Z,14.40
2018-08-23T02:21:06.678Z,14.30
2018-08-23T02:23:40.072Z,14.30
2018-08-23T02:26:08.082Z,14.30
2018-08-23T02:28:37.402Z,14.30
2018-08-23T02:31:05.850Z,14.30
2018-08-23T02:33:33.930Z,14.20
2018-08-23T02:36:22.511Z,14.20
2018-08-23T02:38:53.461Z,14.20
2018-08-23T02:41:22.000Z,14.20
2018-08-23T02:43:50.109Z,14.20
2018-08-23T02:48:59.638Z,14.20
2018-08-23T02:51:45.450Z,14.20
2018-08-23T02:54:15.129Z,14.20
2018-08-23T02:56:49.442Z,14.20
2018-08-23T02:59:18.085Z,14.20
2018-08-23T03:01:47.795Z,14.20
2018-08-23T03:04:17.957Z,14.20
2018-08-23T03:06:49.477Z,14.10
2018-08-23T03:09:18.379Z,14.20
2018-08-23T03:11:47.906Z,14.10
2018-08-23T03:14:16.501Z,14.10
2018-08-23T03:17:27.558Z,14.10
2018-08-23T03:20:17.676Z,14.10
2018-08-23T03:22:47.467Z,14.10
2018-08-23T03:25:17.124Z,14.10
2018-08-23T03:27:45.309Z,14.10
2018-08-23T03:30:14.539Z,14.10
2018-08-23T03:32:42.833Z,14.10
2018-08-23T03:35:11.214Z,14.10
2018-08-23T03:37:39.276Z,14.10
2018-08-23T03:40:09.610Z,14.10
2018-08-23T03:42:38.572Z,14.10
2018-08-23T03:45:06.933Z,14.10
2018-08-23T03:47:40.912Z,14.10
2018-08-23T03:50:09.915Z,14.00
2018-08-23T03:52:39.276Z,14.00
2018-08-23T03:55:07.633Z,14.00
2018-08-23T03:57:42.043Z,14.00
2018-08-23T04:00:10.421Z,14.00
2018-08-23T04:02:38.522Z,14.00
2018-08-23T04:05:12.708Z,14.10
2018-08-23T04:07:41.873Z,14.10
2018-08-23T04:10:10.036Z,14.10
2018-08-23T04:12:39.733Z,14.10
2018-08-23T04:15:16.666Z,14.10
2018-08-23T04:17:45.412Z,14.10
2018-08-23T04:20:14.096Z,14.10
2018-08-23T04:22:42.017Z,14.10
2018-08-23T04:25:10.772Z,14.20
2018-08-23T04:27:39.286Z,14.20
2018-08-23T04:30:08.075Z,14.20
2018-08-23T04:32:42.012Z,14.20
2018-08-23T04:35:10.679Z,14.30
2018-08-23T04:37:39.232Z,14.30
2018-08-23T04:40:08.212Z,14.30
2018-08-23T04:42:36.643Z,14.40
2018-08-23T04:45:09.724Z,14.40
2018-08-23T04:47:43.290Z,14.40
2018-08-23T04:50:11.383Z,14.50
2018-08-23T04:52:39.561Z,14.60
2018-08-23T04:55:07.867Z,14.60
2018-08-23T04:57:36.125Z,14.80
2018-08-23T05:00:04.396Z,14.80
2018-08-23T05:02:32.512Z,14.90
2018-08-23T05:05:00.874Z,15.10
2018-08-23T05:07:29.116Z,15.20
2018-08-23T05:09:57.298Z,15.30
2018-08-23T05:12:25.663Z,15.40
2018-08-23T05:14:53.885Z,15.60
2018-08-23T05:17:22.141Z,15.70
2018-08-23T05:19:50.366Z,15.80
2018-08-23T05:22:18.811Z,16.00
2018-08-23T05:24:47.586Z,16.10
2018-08-23T05:27:15.430Z,16.30
2018-08-23T05:29:43.886Z,16.40
2018-08-23T05:32:12.368Z,16.60
2018-08-23T05:34:40.578Z,16.70
2018-08-23T05:37:08.691Z,16.90
2018-08-23T05:39:43.093Z,17.00
2018-08-23T05:42:11.301Z,17.20
2018-08-23T05:44:39.466Z,17.30
2018-08-23T05:47:07.741Z,17.40
2018-08-23T05:49:36.026Z,17.60
2018-08-23T05:52:04.375Z,17.70
2018-08-23T05:54:33.383Z,17.90
2018-08-23T05:57:01.628Z,18.10
2018-08-23T05:59:30.107Z,18.20
2018-08-23T06:01:59.052Z,18.40
2018-08-23T06:04:33.783Z,18.60
2018-08-23T06:07:02.163Z,18.70
2018-08-23T06:09:30.995Z,18.90
2018-08-23T06:11:59.606Z,19.10
2018-08-23T06:14:28.289Z,19.30
2018-08-23T06:16:58.909Z,19.50
2018-08-23T06:19:29.988Z,19.70
2018-08-23T06:21:59.848Z,19.80
2018-08-23T06:24:30.325Z,20.00
2018-08-23T06:27:02.990Z,20.20
2018-08-23T06:29:33.937Z,20.30
2018-08-23T06:32:06.831Z,20.50
2018-08-23T06:34:52.978Z,20.70
2018-08-23T06:37:23.374Z,20.90
2018-08-23T06:39:51.564Z,21.10
2018-08-23T06:42:19.897Z,21.20
2018-08-23T06:44:52.610Z,21.40
2018-08-23T06:47:22.570Z,21.60
2018-08-23T06:49:52.872Z,21.70
2018-08-23T06:53:03.214Z,21.90
2018-08-23T06:55:33.958Z,22.00
2018-08-23T06:58:04.433Z,22.20
2018-08-23T07:00:33.754Z,22.40
2018-08-23T07:03:04.636Z,22.50
2018-08-23T07:05:33.784Z,22.70
2018-08-23T07:08:03.034Z,22.80
2018-08-23T07:10:30.995Z,22.90
2018-08-23T07:13:00.489Z,23.10
2018-08-23T07:15:29.527Z,23.30
2018-08-23T07:18:00.677Z,23.50
2018-08-23T07:20:29.734Z,23.60
2018-08-23T07:22:58.798Z,23.70
2018-08-23T07:25:32.265Z,23.90
2018-08-23T07:28:02.620Z,24.10
2018-08-23T07:30:31.775Z,24.30
2018-08-23T07:33:00.545Z,24.50
2018-08-23T07:35:29.364Z,24.70
2018-08-23T07:37:58.054Z,24.90
2018-08-23T07:40:28.342Z,25.00
2018-08-23T07:42:58.293Z,25.10
2018-08-23T07:45:27.854Z,25.20
2018-08-23T07:47:56.782Z,25.30
2018-08-23T07:50:25.546Z,25.50
2018-08-23T07:52:54.892Z,25.60
2018-08-23T07:55:23.870Z,25.80
2018-08-23T07:57:52.758Z,25.90
2018-08-23T08:00:28.881Z,26.10
2018-08-23T08:02:58.408Z,26.30
2018-08-23T08:05:30.360Z,26.50
2018-08-23T08:07:59.081Z,26.60
2018-08-23T08:10:32.533Z,26.80
2018-08-23T08:13:01.550Z,26.90
2018-08-23T08:15:31.122Z,27.10
2018-08-23T08:18:26.742Z,27.30
2018-08-23T08:21:02.314Z,27.40
2018-08-23T08:23:32.053Z,27.60
2018-08-23T08:26:01.278Z,27.80
2018-08-23T08:28:30.146Z,28.00
2018-08-23T08:32:30.369Z,28.00
2018-08-23T08:34:59.754Z,28.20
2018-08-23T08:37:30.650Z,28.50
2018-08-23T08:39:59.872Z,28.60
2018-08-23T08:42:30.560Z,28.70
2018-08-23T08:45:07.007Z,28.70
2018-08-23T08:47:36.536Z,28.80
2018-08-23T08:50:05.571Z,28.90
2018-08-23T08:52:34.551Z,29.10
2018-08-23T08:55:03.998Z,29.20
2018-08-23T08:57:33.564Z,29.40
2018-08-23T09:00:02.966Z,29.30
2018-08-23T09:02:32.737Z,29.80
2018-08-23T09:05:02.117Z,29.90
2018-08-23T09:07:32.253Z,30.10
2018-08-23T09:10:01.635Z,30.20
2018-08-23T09:12:32.565Z,29.80
2018-08-23T09:15:01.556Z,30.30
2018-08-23T09:17:42.113Z,30.40
2018-08-23T09:20:16.260Z,30.50
2018-08-23T09:22:50.489Z,30.60
2018-08-23T09:25:33.161Z,30.70
2018-08-23T09:28:01.976Z,30.80
2018-08-23T09:30:32.097Z,30.80
2018-08-23T09:33:07.237Z,30.90
2018-08-23T09:35:36.901Z,31.00
2018-08-23T09:38:14.404Z,31.10
2018-08-23T09:40:43.122Z,31.30
2018-08-23T09:43:12.112Z,31.40
2018-08-23T09:45:45.070Z,31.50
2018-08-23T09:48:14.292Z,31.60
2018-08-23T09:50:43.417Z,31.70
2018-08-23T09:53:17.971Z,31.80
2018-08-23T09:55:47.916Z,31.90
2018-08-23T09:58:25.568Z,32.10
2018-08-23T10:01:00.297Z,32.10
2018-08-23T10:03:35.353Z,32.20
2018-08-23T10:06:09.526Z,32.30
2018-08-23T10:08:44.789Z,32.40
2018-08-23T10:11:21.231Z,32.50
2018-08-23T10:13:56.004Z,32.50
2018-08-23T10:16:30.089Z,32.70
2018-08-23T10:19:00.989Z,32.70
2018-08-23T10:21:35.093Z,32.80
2018-08-23T10:24:18.075Z,32.90
2018-08-23T10:26:46.838Z,32.80
2018-08-23T10:29:16.103Z,32.80
2018-08-23T10:31:45.081Z,32.80
2018-08-23T10:34:14.076Z,32.80
2018-08-23T10:39:37.560Z,33.00
2018-08-23T10:45:00.158Z,33.30
2018-08-23T10:47:34.502Z,33.50
2018-08-23T10:50:03.993Z,33.60
2018-08-23T10:52:32.809Z,33.00
2018-08-23T10:57:54.539Z,33.90
2018-08-23T11:03:20.587Z,33.60
2018-08-23T11:08:42.791Z,33.30
2018-08-23T11:11:31.933Z,33.50
2018-08-23T11:14:05.220Z,33.60
2018-08-23T11:16:39.508Z,33.80
2018-08-23T11:19:13.377Z,34.00
2018-08-23T11:21:41.963Z,34.20
2018-08-23T11:24:11.070Z,35.20
2018-08-23T11:26:40.440Z,34.40
2018-08-23T11:29:09.425Z,34.20
2018-08-23T11:31:37.998Z,34.10
2018-08-23T11:34:07.154Z,33.80
2018-08-23T11:36:36.984Z,33.30
2018-08-23T11:39:08.318Z,32.70
2018-08-23T11:41:37.501Z,32.40
2018-08-23T11:44:06.481Z,32.40
2018-08-23T11:46:35.753Z,32.20
2018-08-23T11:49:04.947Z,32.20
2018-08-23T11:51:33.911Z,32.60
2018-08-23T11:54:02.829Z,33.00
2018-08-23T11:56:32.839Z,33.20
2018-08-23T11:59:02.251Z,33.50
2018-08-23T12:01:31.152Z,33.70
2018-08-23T12:04:00.552Z,34.00
2018-08-23T12:06:29.415Z,34.20
2018-08-23T12:08:58.030Z,34.20
2018-08-23T12:11:27.110Z,34.20
2018-08-23T12:13:56.143Z,34.30
2018-08-23T12:16:25.289Z,34.40
2018-08-23T12:18:54.388Z,34.60
2018-08-23T12:21:24.353Z,34.70
2018-08-23T12:23:53.147Z,35.00
2018-08-23T12:26:22.346Z,35.10
2018-08-23T12:28:57.000Z,35.20
2018-08-23T12:31:25.818Z,35.20
2018-08-23T12:33:54.795Z,35.30
2018-08-23T12:36:29.164Z,35.30
2018-08-23T12:39:03.113Z,35.20
2018-08-23T12:41:37.049Z,35.00
2018-08-23T12:44:06.082Z,34.50
2018-08-23T12:46:37.245Z,34.30
2018-08-23T12:49:08.610Z,34.20
2018-08-23T12:51:38.164Z,34.10
2018-08-23T12:54:07.554Z,34.20
2018-08-23T12:56:37.001Z,34.30
2018-08-23T12:59:07.409Z,34.50
2018-08-23T13:01:37.535Z,34.50
2018-08-23T13:04:07.556Z,34.50
2018-08-23T13:06:37.247Z,34.50
2018-08-23T13:09:07.768Z,34.30
2018-08-23T13:11:36.986Z,34.00
2018-08-23T13:14:07.040Z,33.60
2018-08-23T13:16:37.222Z,33.30
2018-08-23T13:19:07.285Z,33.00
2018-08-23T13:21:37.231Z,33.10
2018-08-23T13:24:07.049Z,33.20
2018-08-23T13:26:40.831Z,33.40
2018-08-23T13:29:09.280Z,33.60
2018-08-23T13:31:37.788Z,33.80
2018-08-23T13:34:06.388Z,33.90
2018-08-23T13:36:34.903Z,33.70
2018-08-23T13:39:03.847Z,33.50
2018-08-23T13:41:32.964Z,33.40
2018-08-23T13:44:01.595Z,33.30
2018-08-23T13:46:30.017Z,33.30
2018-08-23T13:48:58.641Z,33.50
2018-08-23T13:51:27.165Z,33.60
2018-08-23T13:53:55.854Z,33.60
2018-08-23T13:56:24.898Z,33.40
2018-08-23T13:58:54.324Z,33.10
2018-08-23T14:01:27.159Z,32.90
2018-08-23T14:03:56.587Z,32.80
2018-08-23T14:06:25.360Z,32.50
2018-08-23T14:08:53.967Z,32.40
2018-08-23T14:11:22.513Z,32.40
2018-08-23T14:13:51.311Z,32.40
2018-08-23T14:16:19.862Z,32.40
2018-08-23T14:18:48.364Z,32.50
2018-08-23T14:21:16.886Z,32.50
2018-08-23T14:23:45.434Z,32.40
2018-08-23T14:26:14.452Z,32.30
2018-08-23T14:28:42.984Z,32.00
2018-08-23T14:31:11.464Z,31.80
2018-08-23T14:33:39.928Z,31.60
2018-08-23T14:36:10.069Z,31.30
2018-08-23T14:38:38.594Z,31.10
2018-08-23T14:41:07.334Z,30.90
2018-08-23T14:43:35.888Z,30.60
2018-08-23T14:46:09.579Z,30.40
2018-08-23T14:48:39.620Z,30.20
2018-08-23T14:51:08.094Z,29.90
2018-08-23T14:53:36.619Z,29.70
2018-08-23T14:56:10.506Z,29.40
2018-08-23T14:58:39.268Z,29.20
2018-08-23T15:01:07.810Z,29.00
2018-08-23T15:03:36.188Z,28.80
2018-08-23T15:06:04.657Z,28.70
2018-08-23T15:08:33.160Z,28.50
2018-08-23T15:11:01.630Z,28.40
2018-08-23T15:13:30.093Z,28.30
2018-08-23T15:15:58.676Z,28.10
2018-08-23T15:18:27.280Z,28.10
2018-08-23T15:20:56.051Z,27.90
2018-08-23T15:23:24.608Z,27.80
2018-08-23T15:25:53.187Z,27.50
2018-08-23T15:28:21.773Z,27.30
2018-08-23T15:30:50.362Z,27.10
2018-08-23T15:33:19.196Z,26.80
2018-08-23T15:35:47.791Z,26.60
2018-08-23T15:38:16.445Z,26.40
2018-08-23T15:40:44.931Z,26.10
2018-08-23T15:43:13.460Z,25.80
2018-08-23T15:47:11.393Z,25.60
2018-08-23T15:49:39.927Z,25.40
2018-08-23T15:52:08.517Z,25.30
2018-08-23T15:54:37.096Z,25.20
2018-08-23T15:57:05.684Z,25.10
2018-08-23T15:59:34.286Z,25.10
2018-08-23T16:02:02.788Z,25.00
2018-08-23T16:04:31.291Z,24.90
2018-08-23T16:06:59.744Z,24.90
2018-08-23T16:09:28.241Z,24.80
2018-08-23T16:11:57.647Z,24.80
2018-08-23T16:14:26.179Z,24.70
2018-08-23T16:17:00.096Z,24.70
2018-08-23T16:19:33.930Z,24.70
2018-08-23T16:22:02.470Z,24.70
2018-08-23T16:24:30.964Z,24.70
2018-08-23T16:27:02.539Z,24.60
2018-08-23T16:29:31.657Z,24.60
2018-08-23T16:32:00.980Z,24.60
2018-08-23T16:34:30.165Z,24.60
2018-08-23T16:36:59.194Z,24.70
2018-08-23T16:39:28.312Z,24.70
2018-08-23T16:41:56.928Z,24.60
2018-08-23T16:44:25.864Z,24.60
2018-08-23T16:46:54.433Z,24.60
2018-08-23T16:49:23.486Z,24.60
2018-08-23T16:51:52.938Z,24.50
2018-08-23T16:54:22.240Z,24.50
2018-08-23T16:56:50.930Z,24.50
2018-08-23T16:59:19.731Z,24.40
2018-08-23T17:01:48.294Z,24.40
2018-08-23T17:04:17.217Z,24.30
2018-08-23T17:06:46.168Z,24.20
2018-08-23T17:09:15.145Z,24.20
2018-08-23T17:11:44.699Z,24.10
2018-08-23T17:14:14.833Z,24.00
2018-08-23T17:16:49.220Z,23.90
2018-08-23T17:19:18.150Z,23.80
2018-08-23T17:21:47.339Z,23.70
2018-08-23T17:24:16.375Z,23.60
2018-08-23T17:26:45.417Z,23.50
2018-08-23T17:29:14.269Z,23.40
2018-08-23T17:31:42.931Z,23.30
2018-08-23T17:34:12.051Z,23.20
2018-08-23T17:36:41.491Z,23.10
2018-08-23T17:39:10.225Z,23.00
2018-08-23T17:41:38.988Z,22.90
2018-08-23T17:44:07.832Z,22.80
2018-08-23T17:46:36.766Z,22.70
2018-08-23T17:49:05.423Z,22.60
2018-08-23T17:51:34.128Z,22.50
2018-08-23T17:54:03.267Z,22.50
2018-08-23T17:56:32.181Z,22.40
2018-08-23T17:59:01.119Z,22.30
2018-08-23T18:01:30.221Z,22.10
2018-08-23T18:03:59.430Z,22.10
2018-08-23T18:06:28.541Z,22.50
2018-08-23T18:08:57.327Z,21.90
2018-08-23T18:11:26.382Z,21.90
2018-08-23T18:13:55.226Z,21.90
2018-08-23T18:16:29.373Z,21.80
2018-08-23T18:18:58.400Z,21.80
2018-08-23T18:21:27.251Z,21.70
2018-08-23T18:23:56.288Z,21.70
2018-08-23T18:26:25.320Z,21.60
2018-08-23T18:28:54.069Z,21.60
2018-08-23T18:31:22.868Z,21.60
2018-08-23T18:33:51.652Z,21.60
2018-08-23T18:36:20.621Z,21.60
2018-08-23T18:38:49.626Z,21.60
2018-08-23T18:41:19.238Z,21.60
2018-08-23T18:43:48.158Z,21.60
2018-08-23T18:46:17.036Z,21.60
2018-08-23T18:48:45.932Z,21.60
2018-08-23T18:51:14.644Z,21.60
2018-08-23T18:53:43.914Z,21.50
2018-08-23T18:56:13.602Z,21.50
2018-08-23T18:58:42.480Z,21.40
2018-08-23T19:01:11.642Z,21.40
2018-08-23T19:03:40.706Z,21.40
2018-08-23T19:06:09.358Z,21.30
2018-08-23T19:08:38.244Z,21.30
2018-08-23T19:11:14.038Z,21.30
2018-08-23T19:14:00.088Z,21.20
2018-08-23T19:22:06.708Z,21.00
2018-08-23T19:24:35.745Z,21.10
2018-08-23T19:27:15.522Z,21.00
2018-08-23T19:32:36.839Z,21.10
2018-08-23T19:35:07.251Z,21.00
2018-08-23T19:37:36.245Z,21.00
2018-08-23T19:42:56.819Z,21.00
2018-08-23T19:48:21.162Z,21.00
2018-08-23T19:50:55.570Z,21.00
2018-08-23T19:56:26.670Z,21.10
2018-08-23T20:07:16.096Z,21.20
2018-08-23T20:09:54.180Z,21.20
2018-08-23T20:15:24.990Z,21.10
2018-08-23T20:23:43.093Z,20.90
2018-08-23T20:31:56.064Z,20.60
2018-08-23T20:34:25.324Z,20.60
2018-08-23T20:36:54.294Z,20.60
2018-08-23T20:39:23.380Z,20.60
2018-08-23T20:41:52.509Z,20.50
2018-08-23T20:44:21.444Z,20.40
2018-08-23T20:46:57.622Z,20.40
2018-08-23T20:49:26.642Z,20.30
2018-08-23T20:51:55.483Z,20.30
2018-08-23T20:54:24.510Z,20.30
2018-08-23T20:56:54.809Z,20.30
2018-08-23T20:59:24.720Z,20.30
2018-08-23T21:01:54.790Z,20.30
2018-08-23T21:04:24.243Z,20.20
2018-08-23T21:06:58.800Z,20.10
2018-08-23T21:09:27.834Z,20.10
2018-08-23T21:11:56.877Z,20.10
2018-08-23T21:14:25.917Z,20.10
2018-08-23T21:16:55.347Z,20.10
2018-08-23T21:19:24.785Z,20.10
2018-08-23T21:21:54.993Z,20.10
2018-08-23T21:24:26.222Z,20.10
2018-08-23T21:26:55.433Z,20.10
2018-08-23T21:29:29.760Z,20.10
2018-08-23T21:31:58.752Z,20.00
2018-08-23T21:34:27.734Z,20.00
2018-08-23T21:36:56.958Z,19.90
2018-08-23T21:39:25.955Z,19.90
2018-08-23T21:41:55.269Z,19.80
2018-08-23T21:44:25.095Z,19.80
2018-08-23T21:46:55.364Z,19.70
2018-08-23T21:49:24.602Z,19.80
2018-08-23T21:51:54.461Z,19.80
2018-08-23T21:54:25.482Z,19.80
2018-08-23T21:56:54.784Z,19.80
2018-08-23T21:59:23.800Z,19.80
2018-08-23T22:02:01.447Z,19.80
2018-08-23T22:04:31.750Z,19.90
2018-08-23T22:07:00.751Z,19.90
2018-08-23T22:09:29.808Z,19.90
2018-08-23T22:11:58.747Z,20.00
2018-08-23T22:14:27.907Z,20.00
2018-08-23T22:16:56.795Z,20.00
2018-08-23T22:19:25.586Z,20.10
2018-08-23T22:21:54.371Z,20.10
2018-08-23T22:24:24.055Z,20.10
2018-08-23T22:29:56.523Z,20.00
2018-08-23T22:32:26.596Z,20.00
2018-08-23T22:37:51.835Z,20.10
2018-08-23T22:40:25.551Z,20.10
2018-08-23T22:45:47.472Z,20.20
2018-08-23T22:48:17.273Z,20.10
2018-08-23T22:50:46.962Z,20.10
2018-08-23T22:53:16.286Z,20.10
2018-08-23T22:55:45.628Z,20.10
2018-08-23T22:58:15.359Z,20.00
2018-08-23T23:00:44.878Z,20.00
2018-08-23T23:03:19.886Z,20.00
2018-08-23T23:05:49.137Z,19.90
2018-08-23T23:08:18.499Z,19.90
2018-08-23T23:10:47.877Z,19.90
2018-08-23T23:13:16.460Z,19.80
2018-08-23T23:15:45.190Z,19.80
2018-08-23T23:18:14.242Z,19.80
2018-08-23T23:20:42.888Z,19.80
2018-08-23T23:23:11.728Z,19.80
2018-08-23T23:25:40.560Z,19.70
2018-08-23T23:28:08.804Z,19.70
2018-08-23T23:30:38.111Z,19.70
2018-08-23T23:33:07.372Z,19.70
2018-08-23T23:35:36.488Z,19.60
2018-08-23T23:38:05.312Z,19.60
2018-08-23T23:40:34.131Z,19.60
2018-08-23T23:43:02.853Z,19.60
2018-08-23T23:45:31.627Z,19.70
2018-08-23T23:48:00.573Z,19.70
2018-08-23T23:50:29.463Z,19.70
2018-08-23T23:52:58.282Z,19.70
2018-08-23T23:55:26.873Z,19.70
2018-08-23T23:57:55.729Z,19.70
